N8WJE Weather Reports


Display with metric or nautical units.
time (UTC)temp
F
wind
direction
speed
MPH
gust
MPH
rain 1hr
in
rain 24hr
in
rain mn
in
humidity
%
barometer
mb
20210923205503 74 335 1.0 7.0 0.00 0.00 0.00 52 1013.5
20210923205014 74 7 3.0 8.0 0.00 0.00 0.00 51 1013.4
20210923204504 74 2 4.0 8.0 0.00 0.00 0.00 52 1013.5
20210923204003 74 345 3.0 7.0 0.00 0.00 0.00 53 1013.6
20210923203508 73 342 3.0 8.0 0.00 0.00 0.00 51 1013.5
20210923203005 73 353 6.0 11.0 0.00 0.00 0.00 51 1013.7
20210923202503 73 348 4.0 11.0 0.00 0.00 0.00 51 1013.7
20210923202008 73 327 3.0 7.0 0.00 0.00 0.00 53 1013.7
20210923201503 73 343 4.0 8.0 0.00 0.00 0.00 53 1013.7
20210923201003 73 346 4.0 8.0 0.00 0.00 0.00 52 1013.7
20210923200504 73 358 4.0 13.0 0.00 0.00 0.00 51 1013.8
20210923200004 73 9 6.0 13.0 0.00 0.00 0.00 52 1013.7
20210923195513 73 348 4.0 11.0 0.00 0.00 0.00 53 1013.7
20210923195003 73 336 3.0 7.0 0.00 0.00 0.00 53 1013.8
20210923194503 73 345 3.0 8.0 0.00 0.00 0.00 53 1013.8
20210923194003 73 345 3.0 8.0 0.00 0.00 0.00 50 1013.9
20210923193503 73 340 3.0 8.0 0.00 0.00 0.00 53 1013.9
20210923193008 73 340 3.0 7.0 0.00 0.00 0.00 53 1014.0
20210923192508 72 351 1.0 7.0 0.00 0.00 0.00 54 1013.9
20210923192004 72 357 4.0 10.0 0.00 0.00 0.00 54 1014.1
20210923191503 72 359 6.0 13.0 0.00 0.00 0.00 54 1014.1
20210923191003 71 355 4.0 13.0 0.00 0.00 0.00 55 1014.1
20210923190509 71 338 3.0 8.0 0.00 0.00 0.00 56 1014.3
20210923190003 70 330 3.0 8.0 0.00 0.00 0.00 56 1014.3
20210923185503 70 335 3.0 8.0 0.00 0.00 0.00 58 1014.4
20210923185004 69 6 1.0 7.0 0.00 0.00 0.00 57 1014.6
20210923184503 69 348 4.0 10.0 0.00 0.00 0.00 59 1014.6
20210923184009 69 323 3.0 10.0 0.00 0.00 0.00 58 1014.6
20210923183519 69 303 1.0 6.0 0.00 0.00 0.00 62 1014.6
20210923183004 69 332 3.0 8.0 0.00 0.00 0.00 62 1014.7
20210923182508 68 344 3.0 8.0 0.00 0.00 0.00 62 1014.9
20210923182004 68 344 1.0 8.0 0.00 0.00 0.00 65 1014.9
20210923181505 68 313 1.0 8.0 0.00 0.00 0.00 63 1014.9
20210923181004 68 315 3.0 6.0 0.00 0.00 0.00 63 1015.0
20210923180503 68 341 3.0 6.0 0.00 0.00 0.00 62 1015.1
20210923180008 68 333 1.0 6.0 0.00 0.00 0.00 63 1015.3
20210923175508 67 339 3.0 8.0 0.00 0.00 0.00 65 1015.3
20210923175003 67 4 3.0 8.0 0.00 0.00 0.00 65 1015.5
20210923174503 67 346 3.0 8.0 0.00 0.00 0.00 65 1015.3
20210923174003 67 343 4.0 13.0 0.00 0.00 0.00 67 1015.4
20210923173503 66 3 4.0 13.0 0.00 0.00 0.00 65 1015.4
20210923173004 66 357 4.0 10.0 0.00 0.00 0.00 67 1015.4
20210923172503 66 360 6.0 11.0 0.00 0.00 0.00 69 1015.4
20210923172008 66 3 6.0 11.0 0.00 0.00 0.00 69 1015.5
20210923171508 66 348 4.0 8.0 0.00 0.00 0.00 71 1015.4
20210923171008 66 351 4.0 11.0 0.00 0.00 0.00 69 1015.5
20210923170508 66 348 6.0 11.0 0.00 0.00 0.00 69 1015.6
20210923170005 65 343 3.0 8.0 0.00 0.00 0.00 68 1015.6
20210923165503 65 2 3.0 8.0 0.00 0.00 0.00 70 1015.7
20210923165003 65 360 3.0 10.0 0.00 0.00 0.00 70 1015.7
20210923164508 65 356 3.0 10.0 0.00 0.00 0.00 73 1015.8
20210923164011 64 338 3.0 7.0 0.00 0.00 0.00 72 1015.7
20210923163513 64 323 3.0 7.0 0.00 0.00 0.00 72 1015.9
20210923163003 64 327 3.0 6.0 0.00 0.00 0.00 74 1015.9
20210923162508 63 342 3.0 7.0 0.00 0.00 0.00 76 1015.9
20210923162008 63 336 1.0 7.0 0.00 0.00 0.00 77 1016.0
20210923161503 62 336 1.0 6.0 0.00 0.00 0.00 79 1015.9
20210923161008 62 334 1.0 6.0 0.00 0.00 0.00 79 1016.0
20210923160508 62 319 1.0 6.0 0.00 0.00 0.00 81 1016.0
20210923160004 62 313 1.0 4.0 0.00 0.00 0.00 82 1015.9
20210923155508 61 338 1.0 4.0 0.00 0.00 0.00 85 1016.0
20210923155003 60 358 0.0 4.0 0.00 0.00 0.00 85 1016.1
20210923154508 60 327 0.0 4.0 0.00 0.00 0.00 86 1016.0
20210923154003 60 320 0.0 4.0 0.00 0.00 0.00 88 1016.0
20210923153503 59 273 0.0 3.0 0.00 0.00 0.00 88 1015.9
20210923153004 59 293 0.0 1.0 0.00 0.00 0.00 87 1016.0
20210923152508 59 7 1.0 8.0 0.00 0.00 0.00 87 1016.0
20210923152003 59 4 3.0 8.0 0.00 0.00 0.00 86 1016.0
20210923151508 58 358 1.0 7.0 0.00 0.00 0.00 89 1016.0
20210923151003 58 324 0.0 3.0 0.00 0.00 0.00 90 1015.9
20210923150508 58 352 1.0 6.0 0.00 0.00 0.00 90 1015.9
20210923150003 57 353 1.0 6.0 0.00 0.00 0.00 93 1015.8
20210923145503 57 180 0.0 3.0 0.00 0.00 0.00 94 1015.9
20210923145008 56 9 0.0 1.0 0.00 0.00 0.00 95 1016.0
20210923144509 56 16 0.0 4.0 0.00 0.00 0.00 95 1015.9
20210923144003 56 8 1.0 4.0 0.00 0.00 0.00 95 1015.9
20210923143503 56 358 0.0 4.0 0.00 0.00 0.00 96 1015.9
20210923143003 55 0 0.0 0.0 0.00 0.00 0.00 96 1015.9
20210923142503 55 0 0.0 0.0 0.00 0.00 0.00 96 1015.9
20210923142004 55 301 0.0 1.0 0.00 0.00 0.00 97 1015.8
20210923141503 55 197 0.0 4.0 0.00 0.00 0.00 96 1015.8
20210923141013 54 194 0.0 4.0 0.00 0.00 0.00 97 1015.8
20210923140508 54 197 0.0 4.0 0.00 0.00 0.00 97 1015.9
20210923140003 54 190 1.0 6.0 0.00 0.00 0.00 97 1015.8
20210923135509 54 189 1.0 6.0 0.00 0.00 0.00 97 1015.7
20210923135003 53 5 0.0 3.0 0.00 0.00 0.00 97 1015.7
20210923134503 53 0 0.0 0.0 0.00 0.00 0.00 97 1015.7
20210923134003 53 0 0.0 0.0 0.00 0.00 0.00 97 1015.6
20210923133508 53 0 0.0 0.0 0.00 0.00 0.00 97 1015.6
20210923133004 52 0 0.0 0.0 0.00 0.00 0.00 97 1015.5
20210923132503 52 0 0.0 0.0 0.00 0.00 0.00 97 1015.5
20210923132004 52 0 0.0 0.0 0.00 0.00 0.00 97 1015.3
20210923131504 52 0 0.0 0.0 0.00 0.00 0.00 97 1015.4
20210923131008 52 0 0.0 0.0 0.00 0.00 0.00 96 1015.2
20210923130508 52 0 0.0 0.0 0.00 0.00 0.00 96 1015.3
20210923130009 51 0 0.0 0.0 0.00 0.01 0.00 96 1015.2
20210923125515 51 0 0.0 0.0 0.00 0.01 0.00 96 1015.1
20210923125005 51 0 0.0 0.0 0.00 0.03 0.00 96 1015.1
20210923124503 51 0 0.0 0.0 0.00 0.04 0.00 96 1015.0
20210923124003 51 0 0.0 0.0 0.00 0.04 0.00 96 1015.0
20210923123503 51 0 0.0 0.0 0.00 0.04 0.00 96 1015.0
20210923123013 51 0 0.0 0.0 0.00 0.05 0.00 96 1015.0
20210923122523 51 0 0.0 0.0 0.00 0.05 0.00 96 1014.9
20210923122013 51 0 0.0 0.0 0.00 0.05 0.00 96 1014.9
20210923121508 51 0 0.0 0.0 0.00 0.06 0.00 95 1014.8
20210923121018 51 0 0.0 0.0 0.00 0.12 0.00 95 1014.7
20210923120503 51 0 0.0 0.0 0.00 0.16 0.00 95 1014.6
20210923120003 51 0 0.0 0.0 0.00 0.19 0.00 95 1014.5
20210923115611 51 0 0.0 0.0 0.00 0.20 0.00 95 1014.6
20210923115013 51 0 0.0 0.0 0.00 0.21 0.00 95 1014.5
20210923114503 51 0 0.0 0.0 0.00 0.21 0.00 95 1014.5
20210923114003 51 0 0.0 0.0 0.00 0.21 0.00 95 1014.3
20210923113503 51 0 0.0 0.0 0.00 0.21 0.00 94 1014.2
20210923113003 51 0 0.0 0.0 0.00 0.21 0.00 94 1014.2
20210923112503 51 0 0.0 0.0 0.00 0.21 0.00 94 1014.2
20210923112003 51 0 0.0 0.0 0.00 0.21 0.00 94 1014.1
20210923111503 51 0 0.0 0.0 0.00 0.21 0.00 94 1014.1
20210923111008 51 0 0.0 0.0 0.00 0.21 0.00 94 1014.1
20210923110513 51 0 0.0 0.0 0.00 0.21 0.00 94 1014.1
20210923110013 51 0 0.0 0.0 0.00 0.21 0.00 94 1014.0
20210923105504 51 5 0.0 1.0 0.00 0.21 0.00 94 1013.9
20210923105003 51 5 0.0 3.0 0.00 0.21 0.00 94 1013.9
20210923104503 52 352 0.0 3.0 0.00 0.21 0.00 94 1014.0
20210923104013 52 350 0.0 3.0 0.00 0.21 0.00 94 1013.9
20210923103503 52 0 0.0 0.0 0.00 0.21 0.00 94 1014.0
20210923103009 52 0 0.0 0.0 0.00 0.21 0.00 94 1013.9
20210923102504 52 0 0.0 0.0 0.00 0.21 0.00 94 1013.9
20210923102015 52 0 0.0 0.0 0.00 0.21 0.00 94 1014.0
20210923101504 52 0 0.0 0.0 0.00 0.21 0.00 94 1014.0
20210923101015 52 0 0.0 0.0 0.00 0.21 0.00 94 1013.9
20210923100508 52 0 0.0 0.0 0.00 0.21 0.00 94 1014.1
20210923100004 52 0 0.0 0.0 0.00 0.21 0.00 94 1014.0
20210923095503 52 350 0.0 1.0 0.00 0.21 0.00 94 1013.9
20210923095003 52 350 0.0 3.0 0.00 0.21 0.00 94 1013.8
20210923094503 52 350 0.0 3.0 0.00 0.21 0.00 94 1013.9
20210923094008 52 350 0.0 1.0 0.00 0.21 0.00 94 1014.0
20210923093508 52 350 0.0 1.0 0.00 0.21 0.00 94 1014.1
20210923093003 52 350 0.0 1.0 0.00 0.21 0.00 94 1013.9
20210923092504 52 0 0.0 0.0 0.00 0.21 0.00 94 1014.0
20210923092003 52 0 0.0 0.0 0.00 0.21 0.00 94 1014.0
20210923091508 52 0 0.0 0.0 0.00 0.21 0.00 94 1014.2
20210923091003 52 0 0.0 0.0 0.00 0.21 0.00 94 1014.1
20210923090503 52 0 0.0 0.0 0.00 0.21 0.00 94 1014.0
20210923090003 52 0 0.0 0.0 0.00 0.21 0.00 94 1013.9
20210923085508 52 0 0.0 0.0 0.00 0.21 0.00 94 1013.9
20210923085003 53 0 0.0 0.0 0.00 0.21 0.00 94 1014.0
20210923084503 53 0 0.0 0.0 0.00 0.21 0.00 94 1014.0
20210923084003 53 0 0.0 0.0 0.00 0.21 0.00 94 1014.0
20210923083503 53 0 0.0 0.0 0.00 0.21 0.00 94 1014.0
20210923083003 53 0 0.0 0.0 0.00 0.21 0.00 94 1014.1
20210923082508 53 0 0.0 0.0 0.00 0.21 0.00 94 1014.2
20210923082003 53 0 0.0 0.0 0.00 0.21 0.00 94 1014.2
20210923081508 53 0 0.0 0.0 0.00 0.21 0.00 93 1014.2
20210923081014 53 0 0.0 0.0 0.00 0.21 0.00 93 1014.3
20210923080508 53 0 0.0 0.0 0.00 0.21 0.00 93 1014.2
20210923080008 53 0 0.0 0.0 0.00 0.21 0.00 93 1014.2
20210923075508 53 0 0.0 0.0 0.00 0.21 0.00 93 1014.3
20210923075008 53 0 0.0 0.0 0.00 0.21 0.00 93 1014.2
20210923074511 53 0 0.0 0.0 0.00 0.21 0.00 93 1014.2
20210923074013 53 0 0.0 0.0 0.00 0.21 0.00 93 1014.1
20210923073503 54 0 0.0 0.0 0.00 0.21 0.00 93 1014.1
20210923073003 54 0 0.0 0.0 0.00 0.21 0.00 92 1014.1
20210923072503 54 0 0.0 0.0 0.00 0.22 0.00 92 1014.0
20210923072004 54 0 0.0 0.0 0.00 0.22 0.00 92 1014.0
20210923071504 54 0 0.0 0.0 0.00 0.25 0.00 92 1014.0
20210923071003 54 0 0.0 0.0 0.00 0.36 0.00 92 1014.1
20210923070504 54 0 0.0 0.0 0.00 0.39 0.00 92 1014.2
20210923070009 54 0 0.0 0.0 0.00 0.39 0.00 92 1014.2
20210923065503 54 0 0.0 0.0 0.00 0.39 0.00 92 1014.1
20210923065003 54 0 0.0 0.0 0.00 0.39 0.00 92 1014.2
20210923064513 54 0 0.0 0.0 0.00 0.39 0.00 92 1014.1
20210923064003 54 0 0.0 0.0 0.00 0.39 0.00 91 1014.3
20210923063503 55 0 0.0 0.0 0.00 0.39 0.00 91 1014.5
20210923063004 55 0 0.0 0.0 0.00 0.39 0.00 91 1014.5
20210923062503 55 0 0.0 0.0 0.00 0.39 0.00 91 1014.5
20210923062004 55 0 0.0 0.0 0.00 0.39 0.00 91 1014.5
20210923061503 55 0 0.0 0.0 0.00 0.39 0.00 91 1014.5
20210923061003 55 0 0.0 0.0 0.00 0.39 0.00 90 1014.6
20210923060503 55 0 0.0 0.0 0.00 0.39 0.00 91 1014.6
20210923060005 55 0 0.0 0.0 0.00 0.39 0.00 90 1014.6
20210923055508 55 0 0.0 0.0 0.00 0.39 0.00 90 1014.7
20210923055003 56 0 0.0 0.0 0.00 0.39 0.00 90 1014.8
20210923054503 56 0 0.0 0.0 0.00 0.39 0.00 89 1014.8
20210923054003 56 0 0.0 0.0 0.00 0.39 0.00 89 1014.9
20210923053504 56 0 0.0 0.0 0.00 0.39 0.00 89 1014.9
20210923053008 56 0 0.0 0.0 0.00 0.39 0.00 89 1014.9
20210923052503 56 0 0.0 0.0 0.00 0.39 0.00 88 1014.9
20210923052003 56 0 0.0 0.0 0.00 0.39 0.00 88 1015.0
20210923051503 57 0 0.0 0.0 0.00 0.39 0.00 88 1015.0
20210923051003 57 0 0.0 0.0 0.00 0.39 0.00 87 1015.0
20210923050503 57 0 0.0 0.0 0.00 0.39 0.00 87 1015.0
20210923050004 57 0 0.0 0.0 0.00 0.39 0.00 87 1014.9
20210923045504 57 350 0.0 3.0 0.00 0.39 0.39 86 1014.8
20210923045010 57 350 0.0 3.0 0.00 0.39 0.39 85 1014.8
20210923044503 58 342 0.0 3.0 0.00 0.39 0.39 85 1014.8
20210923044003 58 354 0.0 3.0 0.00 0.39 0.39 85 1014.7
20210923043503 58 12 0.0 3.0 0.00 0.39 0.39 84 1014.7
20210923043004 58 14 1.0 4.0 0.00 0.39 0.39 84 1014.7
20210923042508 58 17 0.0 4.0 0.00 0.39 0.39 84 1014.7
20210923042004 58 17 0.0 3.0 0.00 0.39 0.39 84 1014.8
20210923041508 58 22 0.0 3.0 0.00 0.39 0.39 84 1014.9
20210923041004 58 27 0.0 3.0 0.00 0.39 0.39 83 1014.9
20210923040503 58 13 0.0 3.0 0.00 0.39 0.39 83 1015.0
20210923040004 58 16 0.0 6.0 0.00 0.39 0.39 83 1015.0
20210923035508 58 15 1.0 6.0 0.00 0.39 0.39 82 1015.0
20210923035005 59 10 1.0 7.0 0.00 0.39 0.39 83 1015.0
20210923034503 59 5 3.0 8.0 0.00 0.39 0.39 82 1014.9
20210923034014 59 3 3.0 8.0 0.00 0.39 0.39 83 1014.8
20210923033513 59 6 3.0 10.0 0.00 0.39 0.39 82 1014.9
20210923033003 59 14 1.0 10.0 0.00 0.39 0.39 82 1015.0
20210923032503 59 18 3.0 11.0 0.00 0.39 0.39 82 1014.9
20210923032003 59 15 3.0 11.0 0.00 0.39 0.39 82 1014.9
20210923031503 59 14 4.0 8.0 0.00 0.39 0.39 82 1014.8
20210923031003 59 16 3.0 11.0 0.00 0.39 0.39 82 1014.9
20210923030503 59 18 4.0 11.0 0.00 0.39 0.39 82 1014.8
20210923030014 60 15 4.0 11.0 0.00 0.39 0.39 82 1014.9
20210923025503 60 8 3.0 10.0 0.00 0.39 0.39 81 1014.9
20210923025015 60 6 3.0 10.0 0.00 0.39 0.39 81 1015.0
20210923024504 60 7 3.0 10.0 0.00 0.39 0.39 81 1015.0
20210923024004 60 8 3.0 11.0 0.00 0.39 0.39 81 1015.0
20210923023503 60 9 4.0 11.0 0.00 0.39 0.39 81 1015.0
20210923023008 60 8 4.0 8.0 0.00 0.39 0.39 81 1014.9
20210923022503 60 7 4.0 10.0 0.00 0.39 0.39 81 1015.0
20210923022003 60 7 4.0 14.0 0.00 0.39 0.39 80 1014.9
20210923021503 60 9 4.0 14.0 0.00 0.39 0.39 80 1014.9
20210923021003 61 6 4.0 10.0 0.00 0.39 0.39 81 1014.8
20210923020503 61 359 3.0 10.0 0.00 0.39 0.39 81 1014.9
20210923020003 61 7 3.0 11.0 0.00 0.39 0.39 81 1014.8
20210923015508 61 10 3.0 11.0 0.00 0.39 0.39 81 1014.7
20210923015003 61 8 4.0 11.0 0.00 0.39 0.39 81 1014.7
20210923014503 62 13 4.0 10.0 0.00 0.39 0.39 81 1014.7
20210923014016 62 13 3.0 11.0 0.00 0.39 0.39 81 1014.8
20210923013523 62 12 3.0 11.0 0.00 0.39 0.39 80 1014.8
20210923013004 62 8 1.0 8.0 0.00 0.39 0.39 80 1014.8
20210923012508 62 12 1.0 8.0 0.00 0.39 0.39 80 1014.7
20210923012009 62 15 1.0 8.0 0.00 0.39 0.39 80 1014.8
20210923011518 62 3 1.0 8.0 0.00 0.39 0.39 79 1014.6
20210923011003 62 7 3.0 10.0 0.00 0.39 0.39 78 1014.5
20210923010509 63 12 4.0 13.0 0.00 0.39 0.39 78 1014.5
20210923010003 63 12 6.0 13.0 0.00 0.39 0.39 78 1014.5
20210923005503 63 8 4.0 15.0 0.00 0.39 0.39 77 1014.4
20210923005003 63 356 4.0 15.0 0.00 0.39 0.39 77 1014.4
20210923004503 63 359 4.0 15.0 0.00 0.39 0.39 77 1014.1
20210923004008 63 7 6.0 15.0 0.00 0.39 0.39 76 1014.1
20210923003503 64 9 6.0 15.0 0.00 0.39 0.39 76 1014.0
20210923003006 64 16 6.0 17.0 0.00 0.39 0.39 76 1013.9
20210923002503 64 14 6.0 17.0 0.00 0.39 0.39 75 1013.9
20210923002003 64 2 4.0 11.0 0.00 0.39 0.39 75 1013.9
20210923001503 65 359 6.0 11.0 0.00 0.39 0.39 74 1013.9
20210923001008 65 359 6.0 13.0 0.00 0.39 0.39 73 1013.8
20210923000503 65 360 6.0 13.0 0.00 0.39 0.39 73 1013.7
20210923000004 65 354 6.0 10.0 0.00 0.39 0.39 73 1013.8
20210922235503 66 343 6.0 11.0 0.00 0.39 0.39 73 1013.8
20210922235003 66 345 6.0 17.0 0.00 0.39 0.39 73 1013.8
20210922234518 66 353 6.0 17.0 0.00 0.39 0.39 72 1013.7
20210922234003 66 357 6.0 13.0 0.00 0.39 0.39 72 1013.7
20210922233508 67 356 6.0 13.0 0.00 0.39 0.39 72 1013.7
20210922233003 67 350 6.0 13.0 0.00 0.39 0.39 71 1013.7
20210922232503 67 352 4.0 10.0 0.00 0.39 0.39 71 1013.6
20210922232003 67 353 4.0 10.0 0.00 0.39 0.39 70 1013.7
20210922231503 68 348 4.0 10.0 0.00 0.39 0.39 71 1013.6
20210922231003 68 346 7.0 15.0 0.00 0.39 0.39 70 1013.7
20210922230503 68 347 7.0 15.0 0.00 0.39 0.39 69 1013.6
20210922230004 68 352 6.0 15.0 0.00 0.39 0.39 70 1013.7
20210922225504 68 351 7.0 15.0 0.00 0.39 0.39 70 1013.6
20210922225004 69 342 7.0 14.0 0.00 0.39 0.39 68 1013.5
20210922224503 69 347 7.0 14.0 0.00 0.39 0.39 67 1013.4
20210922224008 69 352 8.0 14.0 0.00 0.39 0.39 66 1013.4
20210922223503 69 354 8.0 15.0 0.00 0.39 0.39 65 1013.4
20210922223003 69 356 8.0 18.0 0.00 0.39 0.39 65 1013.4
20210922222503 70 356 8.0 18.0 0.00 0.39 0.39 65 1013.3
20210922222003 70 346 7.0 17.0 0.00 0.39 0.39 67 1013.2
20210922221513 70 338 7.0 13.0 0.00 0.39 0.39 67 1013.4
20210922221004 70 348 6.0 13.0 0.00 0.39 0.39 67 1013.3
20210922220503 70 344 4.0 11.0 0.00 0.39 0.39 66 1013.1
20210922220006 70 340 6.0 10.0 0.00 0.39 0.39 66 1013.1
20210922215513 70 346 6.0 11.0 0.00 0.39 0.39 65 1013.1
20210922215003 70 339 7.0 13.0 0.00 0.39 0.39 64 1013.0
20210922214503 71 335 6.0 13.0 0.00 0.39 0.39 65 1012.9
20210922214008 71 342 7.0 14.0 0.00 0.39 0.39 64 1012.8
20210922213503 71 340 7.0 14.0 0.00 0.39 0.39 64 1012.8
20210922213003 72 342 7.0 15.0 0.00 0.39 0.39 63 1012.8
20210922212503 72 349 8.0 15.0 0.00 0.39 0.39 62 1012.8
20210922212003 72 348 8.0 17.0 0.00 0.39 0.39 62 1012.9
20210922211503 72 350 8.0 17.0 0.00 0.39 0.39 62 1012.8
20210922211003 73 349 8.0 15.0 0.00 0.39 0.39 62 1012.9
20210922210503 73 344 7.0 14.0 0.00 0.39 0.39 62 1012.7
20210922210009 73 342 6.0 14.0 0.00 0.39 0.39 65 1012.8